Flight Track Log - Related Links

Times and Time Zones

All times are in EDT time to prevent confusion due to time zone crossing. See the NKS214 flight status page for this flight to view local times or setup timezone preferences in your user account.

Time Position Orientation Groundspeed Altitude Reporting Facility
EDT Latitude Longitude Course Direction KTS MPH feet Rate Location/Type
Tue 03:57:23 AM 36.0760 -115.1390 270° West 150 173  Level FlightAware ADS-B
Tue 03:57:51 AM 36.0770 -115.1660 273° West 156 180 3,100 4,179 Climbing FlightAware ADS-B
Tue 03:58:19 AM 36.0770 -115.1900 270° West 163 188 3,900 1,286 Climbing FlightAware ADS-B
Tue 03:58:47 AM 36.0770 -115.2200 270° West 190 219 4,300 986 Climbing FlightAware ADS-B
Tue 03:59:32 AM 36.0570 -115.2640 241° Southwest 249 287 5,100 1,371 Climbing FlightAware ADS-B
Tue 03:59:57 AM 36.0270 -115.2750 197° South 274 315 5,900 2,557 Climbing FlightAware ADS-B
Tue 04:00:33 AM 35.9860 -115.2550 158° South 285 328 7,700 3,000 Climbing FlightAware ADS-B
Tue 04:00:43 AM 35.9790 -115.2400 120° Southeast 293 337 8,200 2,800 Climbing FlightAware ADS-B
Tue 04:01:03 AM 35.9740 -115.2060 100° East 301 346 9,100 2,400 Climbing FlightAware ADS-B
Tue 04:01:43 AM 35.9710 -115.1370 93° East 324 373 10,600 1,725 Climbing FlightAware ADS-B
Tue 04:02:23 AM 35.9680 -115.0560 93° East 369 425 11,400 2,260 Climbing FlightAware ADS-B
Tue 04:03:00 AM 35.9660 -114.9800 92° East 359 413 13,500 2,400 Climbing FlightAware ADS-B
Tue 04:03:43 AM 35.9620 -114.8880 93° East 390 449 14,600 1,357 Climbing FlightAware ADS-B
Tue 04:04:24 AM 35.9550 -114.7930 95° East 421 484 15,400 1,500 Climbing FlightAware ADS-B
Tue 04:05:07 AM 35.9470 -114.6870 95° East 437 503 16,700 1,829 Climbing FlightAware ADS-B
Tue 04:05:46 AM 35.9400 -114.5920 95° East 446 513 17,900 1,395 Climbing FlightAware ADS-B
Tue 04:06:33 AM 35.9310 -114.4680 95° East 469 540 18,700 1,241 Climbing FlightAware ADS-B
Tue 04:07:13 AM 35.9240 -114.3590 95° East 477 549 19,700 1,350 Climbing FlightAware ADS-B
Tue 04:07:53 AM 35.9150 -114.2480 96° East 488 562 20,500 1,214 Climbing FlightAware ADS-B
Tue 04:08:37 AM 35.9060 -114.1280 95° East 492 566 21,400 1,229 Climbing FlightAware ADS-B
Tue 04:09:16 AM 35.8980 -114.0210 95° East 496 571 22,200 1,143 Climbing FlightAware ADS-B
Tue 04:10:01 AM 35.8880 -113.8910 95° East 502 578 23,000 977 Climbing FlightAware ADS-B
Tue 04:10:42 AM 35.8790 -113.7740 95° East 507 583 23,600 923 Climbing FlightAware ADS-B
Tue 04:11:32 AM 35.8670 -113.6290 96° East 508 585 24,400 1,055 Climbing FlightAware ADS-B
Tue 04:12:13 AM 35.8570 -113.5100 96° East 509 586 25,200 1,143 Climbing FlightAware ADS-B
Tue 04:12:56 AM 35.8470 -113.3890 96° East 508 585 26,000 1,229 Climbing FlightAware ADS-B
Tue 04:13:36 AM 35.8380 -113.2730 95° East 504 580 26,900 1,129 Climbing FlightAware ADS-B
Tue 04:14:21 AM 35.8270 -113.1490 96° East 508 585 27,600 1,077 Climbing FlightAware ADS-B
Tue 04:14:54 AM 35.8190 -113.0480 96° East 508 585 28,300 1,320 Climbing FlightAware ADS-B
Tue 04:16:01 AM 35.8020 -112.8610 96° East 500 575 29,800 1,434 Climbing FlightAware ADS-B
Tue 04:16:47 AM 35.7910 -112.7290 96° East 494 568 31,000 1,674 Climbing FlightAware ADS-B
Tue 04:17:27 AM 35.7810 -112.6180 96° East 486 559 32,200 1,610 Climbing FlightAware ADS-B
Tue 04:18:09 AM 35.7700 -112.5030 97° East 484 557 33,200 1,116 Climbing FlightAware ADS-B
Tue 04:18:53 AM 35.7590 -112.3820 96° East 488 562 33,800 1,059 Climbing FlightAware ADS-B
Tue 04:19:34 AM 35.7490 -112.2690 96° East 486 559 34,700 1,259 Climbing FlightAware ADS-B
Tue 04:20:14 AM 35.7390 -112.1600 96° East 485 558 35,500 1,286 Climbing FlightAware ADS-B
Tue 04:20:58 AM 35.7280 -112.0400 96° East 480 552 36,500 1,125 Climbing FlightAware ADS-B
Tue 04:21:34 AM 35.7180 -111.9430 97° East 478 550 37,000 395 Climbing FlightAware ADS-B
Tue 04:22:14 AM 35.7070 -111.8370 97° East 469 540 37,000  Level FlightAware ADS-B
Tue 04:22:56 AM 35.6930 -111.7270 99° East 471 542 37,000  Level FlightAware ADS-B
Tue 04:23:32 AM 35.6800 -111.6310 99° East 469 540 37,000  Level FlightAware ADS-B
Tue 04:24:13 AM 35.6670 -111.5230 98° East 468 539 37,000  Level FlightAware ADS-B
Tue 04:24:57 AM 35.6520 -111.4070 99° East 467 537 37,000  Level FlightAware ADS-B
Tue 04:25:29 AM 35.6410 -111.3260 99° East 467 537 37,000  Level FlightAware ADS-B
Tue 04:26:11 AM 35.6260 -111.2130 99° East 467 537 37,000  Level FlightAware ADS-B
Tue 04:26:57 AM 35.6110 -111.0930 99° East 469 540 37,000  Level FlightAware ADS-B
Tue 04:27:37 AM 35.5960 -110.9860 100° East 471 542 37,000  Level FlightAware ADS-B
Tue 04:28:20 AM 35.5820 -110.8760 99° East 473 544 37,000  Level FlightAware ADS-B
Tue 04:29:00 AM 35.5670 -110.7690 100° East 475 547 37,000  Level FlightAware ADS-B
Tue 04:29:45 AM 35.5510 -110.6490 99° East 473 544 37,000  Level FlightAware ADS-B
Tue 04:30:34 AM 35.5330 -110.5190 100° East 470 541 37,000  Level FlightAware ADS-B
Tue 04:31:18 AM 35.5180 -110.4040 99° East 469 540 37,000  Level FlightAware ADS-B
Tue 04:31:59 AM 35.5030 -110.2990 100° East 467 537 37,000  Level FlightAware ADS-B
Tue 04:32:39 AM 35.4880 -110.1950 100° East 465 535 37,000  Level FlightAware ADS-B
Tue 04:33:21 AM 35.4730 -110.0870 100° East 465 535 37,000 -68 Level FlightAware ADS-B
Tue 04:34:07 AM 35.4560 -109.9650 100° East 467 537 36,900 70 Descending FlightAware ADS-B
Tue 04:34:47 AM 35.4410 -109.8590 100° East 463 533 37,100 71 Climbing FlightAware ADS-B
Tue 04:35:31 AM 35.4250 -109.7460 100° East 465 535 37,000 -71 Descending FlightAware ADS-B
Tue 04:36:11 AM 35.4100 -109.6430 100° East 465 535 37,000  Level FlightAware ADS-B
Tue 04:36:47 AM 35.3960 -109.5500 100° East 464 534 37,000  Level FlightAware ADS-B
Tue 04:37:45 AM 35.3780 -109.4200 100° East 464 534 37,000  Level FlightAware ADS-B
Tue 04:38:19 AM 35.3620 -109.3120 100° East 464 534 37,000  Level FlightAware ADS-B
Tue 04:39:05 AM 35.3440 -109.1940 101° East 463 533 37,000  Level FlightAware ADS-B
Tue 04:39:49 AM 35.3270 -109.0800 100° East 462 532 37,000  Level FlightAware ADS-B
Tue 04:40:32 AM 35.3110 -108.9710 100° East 461 531 37,000  Level FlightAware ADS-B
Tue 04:41:11 AM 35.2960 -108.8730 101° East 460 529 37,000  Level FlightAware ADS-B
Tue 04:41:53 AM 35.2790 -108.7650 101° East 459 528 37,000  Level FlightAware ADS-B
Tue 04:42:33 AM 35.2640 -108.6650 100° East 458 527 37,000  Level FlightAware ADS-B
Tue 04:43:10 AM 35.2530 -108.5840 99° East 458 527 37,000  Level FlightAware ADS-B
Tue 04:43:59 AM 35.2370 -108.4780 100° East 458 527 37,000  Level FlightAware ADS-B
Tue 04:44:35 AM 35.2260 -108.4000 100° East 458 527 37,000  Level FlightAware ADS-B
Tue 04:45:23 AM 35.2110 -108.2960 100° East 458 527 37,000  Level FlightAware ADS-B
Tue 04:46:21 AM 35.1740 -108.0870 102° East 449 517 37,000  Level FlightAware ADS-B
Tue 04:46:47 AM 35.1640 -108.0240 101° East 448 516 37,000  Level FlightAware ADS-B
Tue 04:47:43 AM 35.1420 -107.8860 101° East 446 513 37,000  Level FlightAware ADS-B
Tue 04:49:03 AM 35.1120 -107.6960 101° East 448 516 37,000  Level FlightAware ADS-B
Tue 04:49:41 AM 35.0940 -107.5920 102° East 449 517 37,000  Level FlightAware ADS-B
Tue 04:50:23 AM 35.0780 -107.4880 101° East 451 519 37,000  Level FlightAware ADS-B
Tue 04:51:01 AM 35.0620 -107.3930 102° East 453 521 37,000  Level FlightAware ADS-B
Tue 04:51:43 AM 35.0440 -107.2870 102° East 454 522 37,000  Level FlightAware ADS-B
Tue 04:52:21 AM 35.0290 -107.1930 101° East 454 522 37,000  Level FlightAware ADS-B
Tue 04:53:05 AM 35.0100 -107.0800 102° East 455 524 37,000  Level FlightAware ADS-B
Tue 04:53:47 AM 34.9920 -106.9750 102° East 456 525 37,000  Level FlightAware ADS-B
Tue 04:54:31 AM 34.9730 -106.8630 102° East 456 525 37,000 357 Level FlightAware ADS-B
Tue 04:55:11 AM 34.9570 -106.7640 101° East 458 527 37,500 1,026 Climbing FlightAware ADS-B
Tue 04:55:47 AM 34.9410 -106.6730 102° East 452 520 38,300 1,184 Climbing FlightAware ADS-B
Tue 04:56:27 AM 34.9250 -106.5760 101° East 447 514 39,000 512 Climbing FlightAware ADS-B
Tue 04:57:09 AM 34.9060 -106.4720 103° East 446 513 39,000  Level FlightAware ADS-B
Tue 04:57:47 AM 34.8900 -106.3780 102° East 451 519 39,000  Level FlightAware ADS-B
Tue 04:58:26 AM 34.8740 -106.2830 102° East 450 518 39,000  Level FlightAware ADS-B
Tue 04:59:11 AM 34.8540 -106.1710 102° East 447 514 39,000  Level FlightAware ADS-B
Tue 04:59:53 AM 34.8360 -106.0670 102° East 446 513 39,000  Level FlightAware ADS-B
Tue 05:00:36 AM 34.8170 -105.9640 103° East 448 516 39,000  Level FlightAware ADS-B
Tue 05:01:17 AM 34.7990 -105.8600 102° East 453 521 39,000  Level FlightAware ADS-B
Tue 05:01:53 AM 34.7830 -105.7710 102° East 456 525 39,000  Level FlightAware ADS-B
Tue 05:02:33 AM 34.7650 -105.6710 102° East 458 527 39,000 73 Level FlightAware ADS-B
Tue 05:03:15 AM 34.7460 -105.5650 102° East 458 527 39,100  Climbing FlightAware ADS-B
Tue 05:03:59 AM 34.7250 -105.4530 103° East 458 527 39,000  Descending FlightAware ADS-B
Tue 05:04:42 AM 34.7080 -105.3570 102° East 458 527 39,100 66 Climbing FlightAware ADS-B
Tue 05:05:30 AM 34.6900 -105.2540 102° East 458 527 39,100  Level FlightAware ADS-B
Tue 05:06:06 AM 34.6770 -105.1770 102° East 458 527 39,100  Level FlightAware ADS-B
Tue 05:06:54 AM 34.6590 -105.0740 102° East 458 527 39,100  Level FlightAware ADS-B
Tue 05:07:29 AM 34.6460 -104.9990 102° East 458 527 39,100  Level FlightAware ADS-B
Tue 05:08:18 AM 34.6270 -104.8940 102° East 458 527 39,100  Level FlightAware ADS-B
Tue 05:08:55 AM 34.6130 -104.8150 102° East 458 527 39,100  Level FlightAware ADS-B
Tue 05:09:29 AM 34.6010 -104.7420 101° East 458 527 39,100  Level FlightAware ADS-B
Tue 05:10:15 AM 34.5830 -104.6440 103° East 458 527 39,100  Level FlightAware ADS-B
Tue 05:10:51 AM 34.5700 -104.5670 102° East 458 527 39,100  Level FlightAware ADS-B
Tue 05:11:39 AM 34.5520 -104.4640 102° East 458 527 39,100  Level FlightAware ADS-B
Tue 05:12:25 AM 34.5350 -104.3660 102° East 458 527 39,100  Level FlightAware ADS-B
Tue 05:13:12 AM 34.5170 -104.2650 102° East 458 527 39,100  Level FlightAware ADS-B
Tue 05:13:48 AM 34.5040 -104.1880 102° East 458 527 39,100 -85 Level FlightAware ADS-B
Tue 05:14:23 AM 34.4386 -103.9383 102° East 446 513 39,000 -63 Descending Albuquerque Center
Tue 05:15:23 AM 34.4103 -103.7900 103° East 447 514 39,000  Level Albuquerque Center
Tue 05:16:24 AM 34.3817 -103.6439 103° East 446 513 39,000  Level Albuquerque Center
Tue 05:17:24 AM 34.3528 -103.4978 103° East 445 512 39,000  Level Albuquerque Center
Tue 05:18:24 AM 34.3239 -103.3503 103° East 447 514 39,000  Level Albuquerque Center
Tue 05:19:24 AM 34.2919 -103.2064 105° East 444 511 39,000  Level Albuquerque Center
Tue 05:20:25 AM 34.2647 -103.0622 103° East 441 507 39,000  Level Albuquerque Center
Tue 05:21:25 AM 34.2353 -102.9172 104° East 435 501 39,000  Level Albuquerque Center
Tue 05:22:25 AM 34.2056 -102.7681 104° East 438 504 39,000  Level Albuquerque Center
Tue 05:23:25 AM 34.1744 -102.6292 105° East 434 499 39,000  Level Albuquerque Center
Tue 05:24:26 AM 34.1458 -102.4903 104° East 428 493 39,000  Level Albuquerque Center
Tue 05:25:26 AM 34.1169 -102.3472 104° East 434 499 39,000  Level Albuquerque Center
Tue 05:26:26 AM 34.0861 -102.2039 105° East 438 504 39,000  Level Albuquerque Center
Tue 05:27:41 AM 34.0503 -102.0358 104° East 438 504 39,000  Level Fort Worth Center
Tue 05:28:41 AM 34.0183 -101.8811 104° East 438 504 39,000  Level Fort Worth Center
Tue 05:29:41 AM 33.9881 -101.7369 104° East 438 504 39,000  Level Fort Worth Center
Tue 05:30:41 AM 33.9611 -101.6053 104° East 438 504 39,000  Level Fort Worth Center
Tue 05:31:41 AM 33.9247 -101.4483 106° East 438 504 39,000  Level Fort Worth Center
Tue 05:32:41 AM 33.8975 -101.3194 104° East 444 511 39,000  Level Fort Worth Center
Tue 05:33:41 AM 33.8625 -101.1653 105° East 433 498 39,000  Level Fort Worth Center
Tue 05:38:57 AM 33.6910 -100.4100 105° East 442 509 39,000  Level FlightAware ADS-B
Tue 05:39:32 AM 33.6760 -100.3390 104° East 442 509 39,000  Level FlightAware ADS-B
Tue 05:40:09 AM 33.6590 -100.2640 105° East 442 509 39,000  Level FlightAware ADS-B
Tue 05:40:59 AM 33.6360 -100.1630 105° East 442 509 39,000  Level FlightAware ADS-B
Tue 05:42:23 AM 33.5800 -99.9260 106° East 441 507 39,000  Level FlightAware ADS-B
Tue 05:43:03 AM 33.5620 -99.8450 105° East 441 507 39,000  Level FlightAware ADS-B
Tue 05:43:49 AM 33.5320 -99.7210 106° East 443 510 39,000  Level FlightAware ADS-B
Tue 05:44:26 AM 33.5150 -99.6470 105° East 443 510 39,000  Level FlightAware ADS-B
Tue 05:45:59 AM 33.4670 -99.4360 105° East 443 510 39,000  Level FlightAware ADS-B
Tue 05:46:30 AM 33.4430 -99.3410 107° East 440 506 39,000  Level FlightAware ADS-B
Tue 05:47:20 AM 33.4200 -99.2420 106° East 440 506 39,000  Level FlightAware ADS-B
Tue 05:48:10 AM 33.3870 -99.1080 106° East 439 505 39,000  Level FlightAware ADS-B
Tue 05:48:51 AM 33.3640 -99.0140 106° East 439 505 39,000  Level FlightAware ADS-B
Tue 05:49:34 AM 33.3390 -98.9120 106° East 438 504 39,000  Level FlightAware ADS-B
Tue 05:50:14 AM 33.3170 -98.8200 106° East 437 503 39,000 -439 Level FlightAware ADS-B
Tue 05:50:56 AM 33.2930 -98.7210 106° East 435 501 38,400 -2,025 Descending FlightAware ADS-B
Tue 05:51:34 AM 33.2720 -98.6340 106° East 445 512 36,300 -3,417 Descending FlightAware ADS-B
Tue 05:52:08 AM 33.2530 -98.5560 106° East 443 510 34,300 -5,038 Descending FlightAware ADS-B
Tue 05:53:20 AM 33.2100 -98.3820 106° East 469 540 27,400 -5,650 Descending FlightAware ADS-B
Tue 05:54:08 AM 33.1800 -98.2600 106° East 480 552 23,000 -4,841 Descending FlightAware ADS-B
Tue 05:54:48 AM 33.1550 -98.1580 106° East 466 536 20,300 -3,585 Descending FlightAware ADS-B
Tue 05:55:30 AM 33.1300 -98.0580 107° East 444 511 18,100 -3,439 Descending FlightAware ADS-B
Tue 05:56:10 AM 33.1070 -97.9660 107° East 430 495 15,600 -3,035 Descending FlightAware ADS-B
Tue 05:56:55 AM 33.0820 -97.8670 107° East 418 481 13,800 -1,814 Descending FlightAware ADS-B
Tue 05:57:36 AM 33.0620 -97.7850 106° East 412 474 13,000 -623 Descending FlightAware ADS-B
Tue 05:58:12 AM 33.0460 -97.7180 106° East 412 474 13,000  Level FlightAware ADS-B
Tue 05:59:00 AM 33.0240 -97.6290 106° East 412 474 13,000 -2,377 Level FlightAware ADS-B
Tue 05:59:58 AM 33.1180 -97.5180 45° Northeast 289 333 8,800 -3,115 Descending FlightAware ADS-B
Tue 06:00:44 AM 33.1120 -97.4460 96° East 289 333 7,600 -1,600 Descending FlightAware ADS-B
Tue 06:01:13 AM 33.1090 -97.4000 94° East 286 329 6,800 -1,585 Descending FlightAware ADS-B
Tue 06:01:37 AM 33.1070 -97.3620 94° East 285 328 6,200 -1,636 Descending FlightAware ADS-B
Tue 06:02:08 AM 33.1040 -97.3120 94° East 287 330 5,300 -1,400 Descending FlightAware ADS-B
Tue 06:02:37 AM 33.1020 -97.2670 93° East 276 318 4,800 -828 Descending FlightAware ADS-B
Tue 06:03:06 AM 33.1000 -97.2260 93° East 260 299 4,500 -533 Descending FlightAware ADS-B
Tue 06:03:22 AM 33.0980 -97.2030 96° East 249 287 4,400 -585 Descending FlightAware ADS-B
Tue 06:03:47 AM 33.0950 -97.1700 96° East 235 270 4,100 -750 Descending FlightAware ADS-B
Tue 06:04:18 AM 33.0910 -97.1310 97° East 222 255 3,700 -814 Descending FlightAware ADS-B
Tue 06:04:46 AM 33.0860 -97.0980 100° East 216 249 3,300 -923 Descending FlightAware ADS-B
Tue 06:05:10 AM 33.0790 -97.0710 107° East 209 241 2,900 -769 Descending FlightAware ADS-B
Tue 06:05:25 AM 33.0710 -97.0590 129° Southeast 192 221 2,800 -136 Descending FlightAware ADS-B
Tue 06:05:54 AM 33.0520 -97.0410 142° Southeast 158 182 2,800 -102 Level FlightAware ADS-B
Tue 06:06:24 AM 33.0350 -97.0300 152° Southeast 130 150 2,700 -462 Descending FlightAware ADS-B
Tue 06:06:46 AM 33.0230 -97.0290 176° South 125 144 2,400 -667 Descending FlightAware ADS-B
Tue 06:07:18 AM 33.0040 -97.0290 180° South 122 140 2,100 -585 Descending FlightAware ADS-B
Tue 06:07:27 AM 33.0000 -97.0290 180° South 122 140 2,000 -600 Descending FlightAware ADS-B
Tue 06:07:58 AM 32.9820 -97.0300 183° South 120 138 1,700 -305 Descending FlightAware ADS-B
Tue 06:08:26 AM 32.9680 -97.0300 180° South 120 138 1,700 305 Level FlightAware ADS-B
Tue 06:12:14 AM 33.0850 -97.0930 336° Northwest 213 245 3,000 308 Climbing FlightAware ADS-B
Tue 06:12:39 AM 33.0790 -97.0690 107° East 213 245 3,000  Level FlightAware ADS-B
Tue 06:17:00 AM 32.8968 -97.0380 175° South  Level Estimated
Tue 06:18:00 AM 32.8968 -97.0380 175° South  Level Estimated

Login

Don't have an account? Register now (free) for customized features, flight alerts, and more!